Time;durP1;ratioP1;P1;durP2;ratioP2;P2;SDS_P1;SDS_P2;PMS_P1;PMS_P2;Temp;Humidity;BMP_temperature;BMP_pressure;BME280_temperature;BME280_humidity;BME280_pressure;Samples;Min_cycle;Max_cycle;Signal;HPM_P1;HPM_P2
2022/08/22 00:00:26;;;;;;;7.30;3.80;;;20.60;99.90;;;;;;5051318;28;20056;-50
2022/08/22 00:03:45;;;;;;;8.23;3.72;;;20.60;99.90;;;;;;5050987;28;20523;-50
2022/08/22 00:07:16;;;;;;;12.88;5.53;;;20.50;99.90;;;;;;5051249;28;20216;-51
2022/08/22 00:10:31;;;;;;;8.25;3.80;;;20.50;99.90;;;;;;5050917;28;20054;-52
2022/08/22 00:13:41;;;;;;;6.65;3.60;;;20.50;99.90;;;;;;5050580;28;20055;-49
2022/08/22 00:17:01;;;;;;;9.15;4.45;;;20.50;99.90;;;;;;5051002;28;20039;-53
2022/08/22 00:20:21;;;;;;;9.40;3.88;;;20.50;99.90;;;;;;5050148;28;20040;-49
2022/08/22 00:23:39;;;;;;;6.68;4.00;;;20.40;99.90;;;;;;5050978;28;20052;-53
2022/08/22 00:27:10;;;;;;;8.25;3.53;;;20.20;99.90;;;;;;5051210;28;20044;-50
2022/08/22 00:30:16;;;;;;;;;;;20.10;99.90;;;;;;5052943;28;20051;-53
2022/08/22 00:33:51;;;;;;;7.50;4.57;;;20.10;99.90;;;;;;5050122;28;19920;-49
2022/08/22 00:37:01;;;;;;;14.63;5.57;;;20.00;99.90;;;;;;5047300;28;20059;-49
2022/08/22 00:40:25;;;;;;;9.70;5.15;;;19.90;99.90;;;;;;5050247;28;20119;-49
2022/08/22 00:43:48;;;;;;;9.15;5.20;;;19.80;99.90;;;;;;5050488;28;20044;-49
2022/08/22 00:47:37;;;;;;;5.70;4.38;;;19.70;99.90;;;;;;5050511;28;20052;-49
2022/08/22 00:51:19;;;;;;;10.30;4.93;;;19.60;99.90;;;;;;5041900;28;20419;-50
2022/08/22 00:54:38;;;;;;;8.85;4.38;;;19.50;99.90;;;;;;5049953;28;20416;-49
2022/08/22 00:58:02;;;;;;;9.25;4.78;;;19.50;99.90;;;;;;5050255;28;20040;-52
2022/08/22 01:01:10;;;;;;;7.20;4.70;;;19.50;99.90;;;;;;5050033;28;20040;-53
2022/08/22 01:04:40;;;;;;;10.30;4.40;;;19.40;99.90;;;;;;5050098;28;20044;-49
2022/08/22 01:08:22;;;;;;;14.20;4.65;;;19.40;99.90;;;;;;5049989;28;20044;-48
2022/08/22 01:11:38;;;;;;;9.20;3.83;;;19.40;99.90;;;;;;5049541;28;20044;-49
2022/08/22 01:14:52;;;;;;;8.52;4.60;;;19.30;99.90;;;;;;5049767;28;20048;-49
2022/08/22 01:18:26;;;;;;;8.15;4.70;;;19.30;99.90;;;;;;5049886;28;20040;-48
2022/08/22 01:22:09;;;;;;;11.88;4.78;;;19.30;99.90;;;;;;5049849;28;20056;-49
2022/08/22 01:25:38;;;;;;;9.80;4.72;;;19.30;99.90;;;;;;5048774;28;20048;-49
2022/08/22 01:29:03;;;;;;;8.63;4.15;;;19.20;99.90;;;;;;5049855;28;20514;-49
2022/08/22 01:32:10;;;;;;;10.85;4.30;;;19.20;99.90;;;;;;5049881;28;20056;-49
2022/08/22 01:35:49;;;;;;;7.50;4.10;;;19.30;99.90;;;;;;5049556;28;20051;-49
2022/08/22 01:39:14;;;;;;;9.13;4.32;;;19.20;99.90;;;;;;5025201;28;20048;-49
2022/08/22 01:42:30;;;;;;;9.57;4.90;;;19.20;99.90;;;;;;5049634;28;20047;-49
2022/08/22 01:46:17;;;;;;;11.48;4.18;;;19.20;99.90;;;;;;5049598;28;20048;-49
2022/08/22 01:49:30;;;;;;;9.82;3.80;;;19.30;99.90;;;;;;5049670;28;20040;-48
2022/08/22 01:52:57;;;;;;;8.52;4.38;;;19.30;99.90;;;;;;5048976;28;20043;-49
2022/08/22 01:56:20;;;;;;;6.45;3.78;;;19.20;99.90;;;;;;5049641;28;20048;-49
2022/08/22 01:59:41;;;;;;;10.32;5.13;;;19.20;99.90;;;;;;5049315;28;20499;-49
2022/08/22 02:03:05;;;;;;;9.40;4.82;;;19.10;99.90;;;;;;5049194;28;20519;-49
2022/08/22 02:06:15;;;;;;;7.70;4.40;;;19.10;99.90;;;;;;5049582;28;20043;-51
2022/08/22 02:09:31;;;;;;;13.88;6.97;;;19.00;99.90;;;;;;5049317;28;20065;-50
2022/08/22 02:13:00;;;;;;;9.93;6.10;;;18.90;99.90;;;;;;5048871;28;20040;-49
2022/08/22 02:16:34;;;;;;;15.32;6.43;;;18.80;99.90;;;;;;5049828;28;20052;-49
2022/08/22 02:20:04;;;;;;;10.80;6.15;;;18.70;99.90;;;;;;5049145;28;20048;-52
2022/08/22 02:23:18;;;;;;;13.57;6.20;;;18.70;99.90;;;;;;5038806;28;20108;-53
2022/08/22 02:26:42;;;;;;;13.52;6.03;;;18.70;99.90;;;;;;5049240;28;20056;-53
2022/08/22 02:30:08;;;;;;;17.55;6.03;;;18.60;99.90;;;;;;5048951;28;20411;-50
2022/08/22 02:33:29;;;;;;;6.82;5.18;;;18.70;99.90;;;;;;5047994;28;20524;-49
2022/08/22 02:37:16;;;;;;;7.63;4.85;;;18.70;99.90;;;;;;5051593;28;20495;-51
2022/08/22 02:40:52;;;;;;;10.65;4.65;;;18.70;99.90;;;;;;5053001;28;20400;-51
2022/08/22 02:44:16;;;;;;;10.75;4.50;;;18.60;99.90;;;;;;5052857;28;20056;-49
2022/08/22 02:47:31;;;;;;;7.63;4.57;;;18.60;99.90;;;;;;5052548;28;20048;-53
2022/08/22 02:50:36;;;;;;;9.90;4.85;;;18.50;99.90;;;;;;5052395;28;20499;-49
2022/08/22 02:53:52;;;;;;;10.20;4.72;;;18.50;99.90;;;;;;5052211;28;20044;-53
2022/08/22 02:57:10;;;;;;;10.32;5.72;;;18.50;99.90;;;;;;5052670;28;20044;-49
2022/08/22 03:00:16;;;;;;;7.05;4.95;;;18.50;99.90;;;;;;5052148;28;20048;-53
2022/08/22 03:03:25;;;;;;;8.88;4.43;;;18.50;99.90;;;;;;5052058;28;20052;-50
2022/08/22 03:06:58;;;;;;;11.85;4.30;;;18.50;99.90;;;;;;5052514;28;20056;-49
2022/08/22 03:10:09;;;;;;;9.90;4.00;;;18.50;99.90;;;;;;5052439;28;20055;-49
2022/08/22 03:13:24;;;;;;;6.97;4.40;;;18.50;99.90;;;;;;5051775;28;20044;-50
2022/08/22 03:16:37;;;;;;;5.85;3.80;;;18.60;99.90;;;;;;5052005;28;20051;-52
2022/08/22 03:19:54;;;;;;;9.98;4.22;;;18.60;99.90;;;;;;5052048;28;20036;-48
2022/08/22 03:23:16;;;;;;;11.35;3.88;;;18.80;99.90;;;;;;5052258;28;20052;-49
2022/08/22 03:26:39;;;;;;;6.47;3.42;;;18.80;99.90;;;;;;5052401;28;20068;-49
2022/08/22 03:29:56;;;;;;;7.63;4.10;;;18.80;99.90;;;;;;5051648;28;20044;-49
2022/08/22 03:33:22;;;;;;;5.88;3.63;;;18.90;99.90;;;;;;5051287;28;20048;-49
2022/08/22 03:36:30;;;;;;;9.50;3.90;;;18.90;99.90;;;;;;5051865;28;20400;-50
2022/08/22 03:39:49;;;;;;;5.97;3.90;;;18.90;99.90;;;;;;5051463;28;20527;-49
2022/08/22 03:43:31;;;;;;;9.10;4.20;;;18.90;99.90;;;;;;5051465;28;20056;-53
2022/08/22 03:47:20;;;;;;;7.57;3.80;;;18.80;99.90;;;;;;5051665;28;20060;-50
2022/08/22 03:50:45;;;;;;;5.22;3.83;;;18.70;99.90;;;;;;5051697;28;20048;-50
2022/08/22 03:54:26;;;;;;;4.60;3.90;;;18.60;99.90;;;;;;5051077;28;20459;-50
2022/08/22 03:57:56;;;;;;;8.98;3.40;;;18.60;99.90;;;;;;5051514;28;20048;-49
2022/08/22 04:01:03;;;;;;;9.75;3.90;;;18.50;99.90;;;;;;5051480;28;20048;-52
2022/08/22 04:04:09;;;;;;;6.20;3.70;;;18.40;99.90;;;;;;5051407;28;20407;-49
2022/08/22 04:07:42;;;;;;;8.25;4.20;;;18.40;99.90;;;;;;5051635;28;20403;-50
2022/08/22 04:11:20;;;;;;;6.63;4.00;;;18.40;99.90;;;;;;5050983;28;20048;-48
2022/08/22 04:14:55;;;;;;;12.35;4.05;;;18.20;99.90;;;;;;5045473;28;20040;-50
2022/08/22 04:18:49;;;;;;;12.23;5.35;;;18.00;99.90;;;;;;5051295;28;20061;-48
2022/08/22 04:22:32;;;;;;;4.43;3.13;;;17.80;99.90;;;;;;5050396;28;20075;-51
2022/08/22 04:25:59;;;;;;;6.70;3.67;;;17.70;99.90;;;;;;5050880;28;20410;-49
2022/08/22 04:29:38;;;;;;;11.20;3.42;;;17.70;99.90;;;;;;5050812;28;20040;-50
2022/08/22 04:32:58;;;;;;;7.15;3.97;;;17.70;99.90;;;;;;5050222;28;20044;-50
2022/08/22 04:36:27;;;;;;;10.15;3.72;;;17.70;99.90;;;;;;5051101;28;20048;-51
2022/08/22 04:39:45;;;;;;;4.38;3.28;;;17.70;99.90;;;;;;5051008;28;20039;-53
2022/08/22 04:42:52;;;;;;;10.02;3.35;;;17.70;99.90;;;;;;5050231;28;20044;-53
2022/08/22 04:46:14;;;;;;;5.82;2.90;;;17.70;99.90;;;;;;5050682;28;20048;-50
2022/08/22 04:49:29;;;;;;;6.85;3.85;;;17.80;99.90;;;;;;5050220;28;20040;-51
2022/08/22 04:52:42;;;;;;;7.65;3.45;;;17.70;99.90;;;;;;5049645;28;20044;-53
2022/08/22 04:56:21;;;;;;;7.30;3.67;;;17.80;99.90;;;;;;5050408;28;20047;-53
2022/08/22 04:59:28;;;;;;;5.30;3.20;;;17.80;99.90;;;;;;5040433;28;20048;-48
2022/08/22 05:02:35;;;;;;;6.88;3.65;;;18.00;99.90;;;;;;5049867;28;20044;-49
2022/08/22 05:05:43;;;;;;;8.15;3.15;;;18.10;99.90;;;;;;5050059;28;20051;-49
2022/08/22 05:08:49;;;;;;;7.63;3.30;;;18.10;99.90;;;;;;5050035;28;20122;-49
2022/08/22 05:11:56;;;;;;;6.25;3.13;;;18.20;99.90;;;;;;5049947;28;20099;-49
2022/08/22 05:15:05;;;;;;;11.25;3.72;;;18.30;99.90;;;;;;5049611;28;20415;-49
2022/08/22 05:18:22;;;;;;;7.63;3.20;;;18.40;99.90;;;;;;5049612;28;20040;-50
2022/08/22 05:21:31;;;;;;;4.43;3.42;;;18.50;99.90;;;;;;5049468;28;20036;-52
2022/08/22 05:24:41;;;;;;;7.18;2.97;;;20.20;99.90;;;;;;5049362;28;20036;-53
2022/08/22 05:27:49;;;;;;;6.97;3.00;;;23.60;99.90;;;;;;5049995;28;20510;-52
2022/08/22 05:30:54;;;;;;;5.03;2.42;;;26.60;99.90;;;;;;5050162;28;20040;-49
2022/08/22 05:34:26;;;;;;;3.92;2.58;;;28.70;99.90;;;;;;5049433;28;20040;-53
2022/08/22 05:37:47;;;;;;;6.05;2.47;;;30.30;99.90;;;;;;5049993;28;20039;-50
2022/08/22 05:40:58;;;;;;;7.85;2.70;;;31.40;99.90;;;;;;5049623;28;20042;-49
2022/08/22 05:44:03;;;;;;;5.32;2.20;;;32.20;99.90;;;;;;5049127;28;20044;-49
2022/08/22 05:47:23;;;;;;;8.95;2.40;;;32.70;99.90;;;;;;5049727;28;20052;-50
2022/08/22 05:50:52;;;;;;;9.02;2.40;;;33.00;99.90;;;;;;5049420;28;20051;-49
2022/08/22 05:54:15;;;;;;;10.73;2.13;;;32.90;99.90;;;;;;5048812;28;20056;-53
2022/08/22 05:57:30;;;;;;;6.97;2.97;;;33.10;99.90;;;;;;5049587;28;20044;-49
2022/08/22 06:00:40;;;;;;;4.45;2.50;;;33.30;99.90;;;;;;5025844;28;20044;-56
2022/08/22 06:04:05;;;;;;;4.78;2.25;;;33.20;99.90;;;;;;5028958;28;20064;-49
2022/08/22 06:07:25;;;;;;;2.83;1.88;;;33.40;99.90;;;;;;5028088;28;20052;-49
2022/08/22 06:10:41;;;;;;;9.10;2.85;;;33.80;99.20;;;;;;5029555;28;20048;-50
2022/08/22 06:14:16;;;;;;;6.00;2.35;;;33.00;99.60;;;;;;5028162;28;20455;-50
2022/08/22 06:17:32;;;;;;;7.82;1.88;;;32.40;99.90;;;;;;5040551;22;20052;-67
2022/08/22 06:20:51;;;;;;;12.18;2.22;;;32.20;99.90;;;;;;5033930;28;20424;-69
2022/08/22 06:23:58;;;;;;;6.10;2.10;;;31.50;99.90;;;;;;5032832;28;20029;-67
2022/08/22 06:27:14;;;;;;;7.10;2.30;;;29.90;99.90;;;;;;5033799;28;20040;-67
2022/08/22 06:30:20;;;;;;;7.40;2.03;;;27.90;99.90;;;;;;5033483;28;20060;-68
2022/08/22 06:33:30;;;;;;;7.97;2.30;;;27.40;99.90;;;;;;5012657;28;20041;-68
2022/08/22 06:36:38;;;;;;;6.63;2.05;;;27.80;99.90;;;;;;5027639;28;20044;-68
2022/08/22 06:39:45;;;;;;;3.40;2.13;;;29.00;99.90;;;;;;5033844;28;20045;-67
2022/08/22 06:42:51;;;;;;;8.50;1.85;;;30.50;99.90;;;;;;5013717;28;20053;-68
2022/08/22 06:45:55;;;;;;;8.45;1.92;;;30.30;99.90;;;;;;5013867;28;20044;-68
2022/08/22 06:49:00;;;;;;;5.60;1.90;;;28.60;99.90;;;;;;5013721;28;20052;-68
2022/08/22 06:52:12;;;;;;;5.18;1.90;;;29.30;99.90;;;;;;5029071;28;20041;-68
2022/08/22 06:55:19;;;;;;;5.30;2.03;;;30.50;99.90;;;;;;5031253;28;20037;-68
2022/08/22 06:58:31;;;;;;;6.35;1.60;;;30.40;99.90;;;;;;5029619;28;20044;-68
2022/08/22 07:01:49;;;;;;;6.47;1.90;;;31.50;99.90;;;;;;5026139;28;20037;-67
2022/08/22 07:04:53;;;;;;;5.95;1.80;;;31.40;99.90;;;;;;5023619;28;20040;-68
2022/08/22 07:07:57;;;;;;;9.18;2.05;;;31.40;99.90;;;;;;5033114;28;20044;-68
2022/08/22 07:11:20;;;;;;;5.22;1.67;;;31.10;99.90;;;;;;5013160;28;20045;-67
2022/08/22 07:14:37;;;;;;;5.07;1.60;;;31.70;99.90;;;;;;5017949;28;20084;-66
2022/08/22 07:17:58;;;;;;;7.10;2.08;;;32.30;99.90;;;;;;5032729;28;20040;-67
2022/08/22 07:21:06;;;;;;;4.13;1.80;;;32.90;99.70;;;;;;5027608;28;20423;-66
2022/08/22 07:24:14;;;;;;;4.53;1.42;;;32.00;99.60;;;;;;5012213;28;20495;-66
2022/08/22 07:27:38;;;;;;;4.95;1.98;;;31.70;99.90;;;;;;5020189;28;20385;-67
2022/08/22 07:30:49;;;;;;;4.68;1.50;;;29.80;99.90;;;;;;5032980;28;20040;-69
2022/08/22 07:34:01;;;;;;;4.38;1.67;;;31.10;99.90;;;;;;5012750;28;20061;-69
2022/08/22 07:37:06;;;;;;;5.78;1.92;;;30.20;99.90;;;;;;5017156;28;20049;-68
2022/08/22 07:40:30;;;;;;;5.90;1.58;;;31.20;99.90;;;;;;5032534;28;20044;-66
2022/08/22 07:43:43;;;;;;;5.20;1.20;;;32.10;99.90;;;;;;5028038;28;20061;-69
2022/08/22 07:47:16;;;;;;;7.38;1.63;;;33.70;99.00;;;;;;5030536;28;20052;-67
2022/08/22 07:50:27;;;;;;;6.40;1.13;;;34.00;97.10;;;;;;5025090;28;20048;-67
2022/08/22 07:53:43;;;;;;;5.22;1.55;;;34.40;96.00;;;;;;5017606;28;20053;-66
2022/08/22 07:56:58;;;;;;;3.78;1.30;;;33.90;95.70;;;;;;5012765;28;21103;-67
2022/08/22 08:00:13;;;;;;;4.47;1.23;;;33.40;94.40;;;;;;5013019;28;20523;-69
2022/08/22 08:03:26;;;;;;;2.78;1.20;;;33.00;94.20;;;;;;5023691;28;20044;-69
2022/08/22 08:06:31;;;;;;;2.58;1.13;;;34.50;94.00;;;;;;5032978;28;20044;-69
2022/08/22 08:09:40;;;;;;;3.72;0.88;;;36.00;92.70;;;;;;5029404;28;20056;-66
2022/08/22 08:12:53;;;;;;;1.80;1.03;;;37.30;91.10;;;;;;5018192;28;20052;-70
2022/08/22 08:15:58;;;;;;;1.42;1.30;;;37.30;90.50;;;;;;5032471;28;20032;-67
2022/08/22 08:19:02;;;;;;;4.00;1.38;;;37.00;90.00;;;;;;5015859;28;20377;-67
2022/08/22 08:22:16;;;;;;;3.30;1.10;;;35.80;90.10;;;;;;5012458;28;20495;-67
2022/08/22 08:25:25;;;;;;;2.28;1.17;;;34.90;91.00;;;;;;5011816;28;20040;-67
2022/08/22 08:28:33;;;;;;;1.48;1.05;;;36.80;90.20;;;;;;5014509;28;20049;-67
2022/08/22 08:31:41;;;;;;;3.28;1.00;;;38.40;87.80;;;;;;5022261;28;20581;-67
2022/08/22 08:34:45;;;;;;;1.77;1.00;;;38.10;83.90;;;;;;5014039;28;20049;-67
2022/08/22 08:37:55;;;;;;;4.72;1.20;;;38.40;83.90;;;;;;5020467;28;20049;-67
2022/08/22 08:41:05;;;;;;;2.90;1.00;;;39.40;82.30;;;;;;5019579;28;20045;-67
2022/08/22 08:44:28;;;;;;;;;;;37.90;82.20;;;;;;5017837;28;20061;-67
2022/08/22 08:47:47;;;;;;;2.30;0.90;;;38.40;82.00;;;;;;5010643;28;19920;-67
2022/08/22 08:51:17;;;;;;;1.75;0.90;;;37.80;80.90;;;;;;5018465;28;20047;-67
2022/08/22 08:54:53;;;;;;;1.50;0.70;;;38.60;77.30;;;;;;5024634;28;20036;-68
2022/08/22 08:58:30;;;;;;;2.25;1.00;;;37.30;79.00;;;;;;5030675;28;20048;-67
2022/08/22 09:01:53;;;;;;;1.63;0.90;;;37.10;77.30;;;;;;5012343;28;20045;-67
2022/08/22 09:05:36;;;;;;;2.85;0.90;;;37.60;80.30;;;;;;5017941;28;20044;-67
2022/08/22 09:09:11;;;;;;;4.20;1.13;;;38.20;78.40;;;;;;5025624;28;20049;-67
2022/08/22 09:12:47;;;;;;;1.15;0.90;;;39.10;77.00;;;;;;5017463;28;20051;-67
2022/08/22 09:16:28;;;;;;;0.85;0.70;;;40.00;77.30;;;;;;5026404;28;20535;-67
2022/08/22 09:20:10;;;;;;;2.72;0.60;;;42.10;74.10;;;;;;4939122;28;20049;-67
2022/08/22 09:23:36;;;;;;;3.22;0.70;;;44.60;68.70;;;;;;5010435;28;20507;-67
2022/08/22 09:27:15;;;;;;;4.50;0.75;;;46.30;63.60;;;;;;5020074;28;20045;-67
2022/08/22 09:30:23;;;;;;;0.73;0.60;;;47.70;62.60;;;;;;5030328;28;20049;-68
2022/08/22 09:33:43;;;;;;;4.10;0.88;;;47.30;60.80;;;;;;5025406;28;20048;-67
2022/08/22 09:37:23;;;;;;;2.63;0.80;;;44.30;61.50;;;;;;5020800;28;20049;-67
2022/08/22 09:40:49;;;;;;;3.10;0.90;;;40.60;64.30;;;;;;5011035;28;20049;-67
2022/08/22 09:44:05;;;;;;;1.38;1.00;;;37.90;67.80;;;;;;5010438;28;20056;-67
2022/08/22 09:47:18;;;;;;;4.18;1.42;;;39.00;68.80;;;;;;5020995;28;20412;-67
2022/08/22 09:50:41;;;;;;;1.20;0.80;;;41.80;66.00;;;;;;5030071;28;20507;-67
2022/08/22 09:54:00;;;;;;;2.65;0.80;;;41.30;67.20;;;;;;5029140;28;20045;-67
2022/08/22 09:57:26;;;;;;;2.10;0.93;;;42.50;63.90;;;;;;5023964;28;20045;-67
2022/08/22 10:00:46;;;;;;;6.70;0.95;;;41.30;65.80;;;;;;5010408;28;20060;-67
2022/08/22 10:04:06;;;;;;;2.47;0.77;;;41.10;64.90;;;;;;5028448;28;20052;-67
2022/08/22 10:07:25;;;;;;;0.75;0.70;;;43.30;65.40;;;;;;5019495;28;20049;-67
2022/08/22 10:10:55;;;;;;;6.47;1.48;;;45.40;63.30;;;;;;5025068;28;20507;-67
2022/08/22 10:14:21;;;;;;;6.15;0.90;;;44.90;60.60;;;;;;5019002;28;20041;-67
2022/08/22 10:17:56;;;;;;;2.40;0.65;;;46.60;62.30;;;;;;5009652;28;20049;-68
2022/08/22 10:21:24;;;;;;;3.28;0.80;;;48.00;60.20;;;;;;5022194;28;20056;-68
2022/08/22 10:24:56;;;;;;;1.40;0.63;;;49.40;57.90;;;;;;5028139;28;20412;-68
2022/08/22 10:28:17;;;;;;;0.90;0.50;;;50.00;58.20;;;;;;5020444;28;20044;-68
2022/08/22 10:31:38;;;;;;;0.55;0.50;;;50.00;55.80;;;;;;5017698;28;20052;-67
2022/08/22 10:34:48;;;;;;;0.80;0.60;;;49.60;53.80;;;;;;5027327;28;20060;-67
2022/08/22 10:38:00;;;;;;;0.75;0.60;;;48.00;51.60;;;;;;5021266;28;20049;-67
2022/08/22 10:41:10;;;;;;;0.98;0.68;;;47.00;52.70;;;;;;5021958;28;20057;-68
2022/08/22 10:44:34;;;;;;;0.90;0.60;;;42.30;54.40;;;;;;5009860;28;20053;-68
2022/08/22 10:48:00;;;;;;;3.22;0.50;;;43.80;53.90;;;;;;5028304;28;20043;-68
2022/08/22 10:51:35;;;;;;;1.60;0.50;;;46.00;54.30;;;;;;5014454;28;20057;-67
2022/08/22 10:54:55;;;;;;;0.50;0.47;;;45.10;54.00;;;;;;5010527;28;20069;-68
2022/08/22 10:58:08;;;;;;;1.15;0.70;;;39.40;52.50;;;;;;5024044;28;20045;-68
2022/08/22 11:01:14;;;;;;;1.10;0.60;;;41.20;55.00;;;;;;5013623;28;20037;-67
2022/08/22 11:04:42;;;;;;;0.60;0.60;;;43.50;54.70;;;;;;5032832;28;20053;-67
2022/08/22 11:08:03;;;;;;;0.40;0.40;;;45.20;53.80;;;;;;5019865;28;20049;-68
2022/08/22 11:11:28;;;;;;;0.98;0.40;;;46.20;52.80;;;;;;5016870;28;20056;-67
2022/08/22 11:14:55;;;;;;;2.88;0.82;;;47.10;52.80;;;;;;5012208;28;20400;-67
2022/08/22 11:18:16;;;;;;;0.50;0.50;;;46.00;52.40;;;;;;5021993;28;20048;-67
2022/08/22 11:21:41;;;;;;;0.90;0.60;;;47.10;52.90;;;;;;5033322;28;20048;-68
2022/08/22 11:25:01;;;;;;;0.68;0.50;;;46.20;52.30;;;;;;5016576;28;20053;-67
2022/08/22 11:28:14;;;;;;;3.03;0.60;;;46.40;52.60;;;;;;5014107;28;20045;-67
2022/08/22 11:31:21;;;;;;;2.45;0.70;;;46.70;52.50;;;;;;5011943;28;20385;-68
2022/08/22 11:34:38;;;;;;;0.82;0.50;;;43.20;53.00;;;;;;5011113;28;20040;-67
2022/08/22 11:38:07;;;;;;;0.73;0.60;;;43.40;55.40;;;;;;5028853;28;20510;-67
2022/08/22 11:41:18;;;;;;;;;;;45.40;53.90;;;;;;5028554;28;20385;-68
2022/08/22 11:44:26;;;;;;;0.90;0.60;;;46.30;53.80;;;;;;5012195;28;19916;-68
2022/08/22 11:47:40;;;;;;;2.88;0.60;;;47.60;53.50;;;;;;5013304;28;20049;-67
2022/08/22 11:50:52;;;;;;;5.65;0.57;;;48.60;53.40;;;;;;5013326;28;20086;-68
2022/08/22 11:54:09;;;;;;;2.55;0.60;;;48.80;52.40;;;;;;5019121;28;20033;-67
2022/08/22 11:57:26;;;;;;;1.80;0.50;;;47.30;51.60;;;;;;5019439;28;20048;-67
2022/08/22 12:00:43;;;;;;;0.98;0.50;;;46.90;53.20;;;;;;5029083;28;20048;-68
2022/08/22 12:04:27;;;;;;;1.15;0.70;;;47.20;53.30;;;;;;5023913;28;20050;-67
2022/08/22 12:07:40;;;;;;;0.88;0.60;;;44.90;52.50;;;;;;5012154;28;20052;-68
2022/08/22 12:11:00;;;;;;;1.23;0.70;;;43.60;54.70;;;;;;5015074;28;20492;-67
2022/08/22 12:14:18;;;;;;;3.47;0.50;;;44.10;53.50;;;;;;5021008;28;20044;-67
2022/08/22 12:17:28;;;;;;;0.55;0.55;;;43.60;53.70;;;;;;5011781;28;20056;-68
2022/08/22 12:20:54;;;;;;;0.73;0.60;;;45.80;53.70;;;;;;5010708;28;20049;-67
2022/08/22 12:24:16;;;;;;;0.82;0.40;;;44.20;51.40;;;;;;5011514;28;20033;-68
2022/08/22 12:27:25;;;;;;;1.17;0.40;;;43.00;54.40;;;;;;5010392;28;20049;-68
2022/08/22 12:30:59;;;;;;;0.40;0.32;;;44.90;53.30;;;;;;5012396;28;20057;-67
2022/08/22 12:34:26;;;;;;;0.55;0.40;;;40.70;52.90;;;;;;5010439;28;20040;-68
2022/08/22 12:37:46;;;;;;;0.73;0.60;;;39.00;54.70;;;;;;5012441;28;20053;-67
2022/08/22 12:41:15;;;;;;;2.28;0.63;;;40.20;54.80;;;;;;5012057;28;20057;-66
2022/08/22 12:44:27;;;;;;;0.60;0.50;;;41.10;53.70;;;;;;5011064;28;20104;-66
2022/08/22 12:47:39;;;;;;;1.25;0.60;;;41.10;55.10;;;;;;5011290;28;20041;-65
2022/08/22 12:51:25;;;;;;;0.73;0.47;;;40.10;55.40;;;;;;5011439;28;20037;-66
2022/08/22 12:54:47;;;;;;;1.27;0.60;;;38.20;57.00;;;;;;5009785;28;20048;-67
2022/08/22 12:58:31;;;;;;;4.72;0.60;;;38.00;57.70;;;;;;5010924;28;20041;-67
2022/08/22 13:01:39;;;;;;;0.80;0.60;;;37.90;59.20;;;;;;5011209;28;20045;-66
2022/08/22 13:04:57;;;;;;;0.90;0.50;;;38.60;59.90;;;;;;5011003;28;20048;-67
2022/08/22 13:08:21;;;;;;;0.38;0.30;;;40.80;56.90;;;;;;5010889;28;20048;-68
2022/08/22 13:11:27;;;;;;;0.68;0.40;;;42.70;53.50;;;;;;5010969;28;20053;-67
2022/08/22 13:14:33;;;;;;;0.50;0.50;;;43.60;53.30;;;;;;5010502;28;20057;-66
2022/08/22 13:17:37;;;;;;;0.60;0.50;;;44.40;52.60;;;;;;5010726;28;20056;-68
2022/08/22 13:20:44;;;;;;;2.00;0.60;;;43.90;53.00;;;;;;5010924;28;20396;-66
2022/08/22 13:23:54;;;;;;;0.40;0.30;;;42.90;53.50;;;;;;5010134;28;20052;-67
2022/08/22 13:27:04;;;;;;;0.95;0.43;;;43.00;54.10;;;;;;5012901;28;20048;-67
2022/08/22 13:30:17;;;;;;;0.50;0.50;;;43.50;53.80;;;;;;5010249;28;20040;-67
2022/08/22 13:33:34;;;;;;;0.90;0.40;;;42.90;53.00;;;;;;5009020;28;20420;-67
2022/08/22 13:36:48;;;;;;;0.50;0.47;;;43.20;53.80;;;;;;5010507;28;20045;-67
2022/08/22 13:39:59;;;;;;;2.00;0.80;;;40.70;52.60;;;;;;5010223;28;20501;-66
2022/08/22 13:43:11;;;;;;;1.88;0.70;;;41.50;55.20;;;;;;5010356;28;20040;-67
2022/08/22 13:46:24;;;;;;;1.92;0.45;;;42.30;54.70;;;;;;5010761;28;20404;-67
2022/08/22 13:49:34;;;;;;;7.60;0.68;;;42.00;55.00;;;;;;5010162;28;20041;-67
2022/08/22 13:53:00;;;;;;;;;;;41.50;54.70;;;;;;5009887;28;20088;-67
2022/08/22 13:56:12;;;;;;;2.47;0.50;;;41.10;55.10;;;;;;5010714;28;19948;-66
2022/08/22 13:59:59;;;;;;;1.75;0.40;;;40.90;56.00;;;;;;5010283;28;20531;-67
2022/08/22 14:03:26;;;;;;;4.63;0.50;;;40.70;55.60;;;;;;4979046;28;20145;-66
2022/08/22 14:06:35;;;;;;;1.45;0.60;;;39.60;56.00;;;;;;5010188;28;20092;-67
2022/08/22 14:10:00;;;;;;;1.67;0.60;;;39.00;57.80;;;;;;5009953;28;20114;-68
2022/08/22 14:13:34;;;;;;;1.90;0.55;;;38.90;58.80;;;;;;5010212;28;20049;-68
2022/08/22 14:16:44;;;;;;;1.17;0.60;;;38.30;58.70;;;;;;5009845;28;20052;-69
2022/08/22 14:19:58;;;;;;;10.33;1.27;;;37.90;59.20;;;;;;5010032;28;20033;-68
2022/08/22 14:23:07;;;;;;;8.07;0.68;;;37.60;60.20;;;;;;5010108;28;20428;-68
2022/08/22 14:26:23;;;;;;;1.10;0.70;;;37.30;59.90;;;;;;5020564;28;20141;-67
2022/08/22 14:29:37;;;;;;;2.45;0.68;;;36.90;60.30;;;;;;5009868;28;20041;-68
2022/08/22 14:32:51;;;;;;;1.80;0.70;;;36.50;62.00;;;;;;5011512;28;20044;-68
2022/08/22 14:35:59;;;;;;;1.23;0.60;;;36.60;61.60;;;;;;5013976;28;20376;-68
2022/08/22 14:39:10;;;;;;;1.40;0.68;;;36.30;62.00;;;;;;5013605;28;20045;-68
2022/08/22 14:42:32;;;;;;;0.80;0.80;;;36.50;62.50;;;;;;5014483;28;20056;-67
2022/08/22 14:45:41;;;;;;;0.80;0.60;;;36.80;60.90;;;;;;5014506;28;20057;-68
2022/08/22 14:49:06;;;;;;;0.82;0.57;;;36.90;57.80;;;;;;5013887;28;20547;-67
2022/08/22 14:52:24;;;;;;;1.35;0.70;;;37.00;57.70;;;;;;5013430;28;20044;-68
2022/08/22 14:55:27;;;;;;;0.50;0.50;;;36.90;58.90;;;;;;5012516;28;20064;-68
2022/08/22 14:58:45;;;;;;;1.15;0.73;;;36.60;60.00;;;;;;5013156;28;20048;-68
2022/08/22 15:02:12;;;;;;;1.70;0.73;;;36.80;60.30;;;;;;5012230;28;20044;-67
2022/08/22 15:05:21;;;;;;;;;;;36.90;60.20;;;;;;5013314;28;20052;-68
2022/08/22 15:08:42;;;;;;;3.10;0.80;;;36.90;60.70;;;;;;5013396;28;19916;-67
2022/08/22 15:11:47;;;;;;;0.93;0.50;;;36.50;61.20;;;;;;5013292;28;20049;-68
2022/08/22 15:14:54;;;;;;;2.58;0.50;;;36.10;61.10;;;;;;5012445;28;20053;-67
2022/08/22 15:17:58;;;;;;;1.27;0.70;;;35.80;63.50;;;;;;5012632;28;20500;-68
2022/08/22 15:21:10;;;;;;;1.25;0.65;;;35.30;61.40;;;;;;5012706;28;20048;-68
2022/08/22 15:24:14;;;;;;;0.60;0.60;;;35.10;63.30;;;;;;5012157;28;20044;-68
2022/08/22 15:27:20;;;;;;;0.75;0.60;;;34.90;63.70;;;;;;5012955;28;20052;-68
2022/08/22 15:30:36;;;;;;;1.75;0.73;;;34.70;64.00;;;;;;5012914;28;20060;-68
2022/08/22 15:33:43;;;;;;;0.82;0.65;;;34.50;64.40;;;;;;5010801;28;20040;-69
2022/08/22 15:36:59;;;;;;;2.83;0.80;;;34.30;64.30;;;;;;5012545;28;20041;-69
2022/08/22 15:40:13;;;;;;;1.13;0.80;;;34.20;64.10;;;;;;5012623;28;20049;-68
2022/08/22 15:43:23;;;;;;;1.38;0.80;;;34.10;64.40;;;;;;5010953;28;20037;-67
2022/08/22 15:46:32;;;;;;;1.27;0.90;;;34.10;64.60;;;;;;5012752;28;20041;-68
2022/08/22 15:49:49;;;;;;;2.28;1.00;;;34.00;65.90;;;;;;5012744;28;20049;-68
2022/08/22 15:53:20;;;;;;;1.02;0.70;;;33.80;65.70;;;;;;5012444;28;20105;-68
2022/08/22 15:56:34;;;;;;;2.15;0.73;;;33.40;64.40;;;;;;5012104;28;20499;-67
2022/08/22 15:59:50;;;;;;;3.97;0.82;;;33.10;64.60;;;;;;5012221;28;20048;-67
2022/08/22 16:03:08;;;;;;;1.13;0.80;;;32.60;64.90;;;;;;5012216;28;20503;-68
2022/08/22 16:06:34;;;;;;;4.50;1.33;;;32.20;66.40;;;;;;5012161;28;20057;-66
2022/08/22 16:09:42;;;;;;;24.95;3.60;;;31.30;75.30;;;;;;5011798;28;20041;-67
2022/08/22 16:13:09;;;;;;;13.23;2.63;;;29.60;86.20;;;;;;5011991;28;20037;-68
2022/08/22 16:16:44;;;;;;;14.25;2.33;;;27.70;91.90;;;;;;5011873;28;20052;-67
2022/08/22 16:19:49;;;;;;;12.43;1.90;;;26.40;95.00;;;;;;5012127;28;20053;-66
2022/08/22 16:22:56;;;;;;;6.15;1.25;;;25.20;99.90;;;;;;5011774;28;20079;-68
2022/08/22 16:26:05;;;;;;;9.30;1.60;;;24.90;99.90;;;;;;5011961;28;20061;-68
2022/08/22 16:29:09;;;;;;;6.03;1.70;;;25.00;99.90;;;;;;5011846;28;20053;-68
2022/08/22 16:32:23;;;;;;;3.53;1.60;;;24.70;99.90;;;;;;5011982;28;20049;-68
2022/08/22 16:36:04;;;;;;;6.85;1.50;;;24.60;99.90;;;;;;5010250;28;20045;-67
2022/08/22 16:39:20;;;;;;;2.83;0.97;;;24.80;99.90;;;;;;5011464;28;20060;-67
2022/08/22 16:42:33;;;;;;;2.35;1.10;;;25.10;99.90;;;;;;5011718;28;20624;-67
2022/08/22 16:45:47;;;;;;;5.18;1.33;;;25.40;99.90;;;;;;5010447;28;20049;-67
2022/08/22 16:48:59;;;;;;;24.60;3.92;;;25.60;99.90;;;;;;5011325;28;20041;-68
2022/08/22 17:01:40;;;;;;;3.47;1.77;;;23.50;99.90;;;;;;5012044;28;20048;-66
2022/08/22 17:04:53;;;;;;;4.50;1.40;;;23.20;99.90;;;;;;5009675;28;20500;-67
2022/08/22 17:08:35;;;;;;;8.38;1.80;;;23.30;99.90;;;;;;5010425;28;20365;-68
2022/08/22 17:12:10;;;;;;;9.43;2.40;;;23.40;99.90;;;;;;5003473;28;20058;-68
2022/08/22 17:15:32;;;;;;;3.72;2.20;;;23.50;99.90;;;;;;5010438;28;20415;-68
2022/08/22 17:19:10;;;;;;;3.25;2.08;;;23.70;99.90;;;;;;5010103;28;20053;-68
2022/08/22 17:22:52;;;;;;;3.25;1.65;;;24.00;99.90;;;;;;5010679;28;20057;-69
2022/08/22 17:26:18;;;;;;;2.78;1.40;;;24.30;99.90;;;;;;5010635;28;20045;-69